Aeroporto :
LOGIN :

Iscrizione | Disclaimer

   EN    FR    IT 

 










Sommario :    VFR   VFR Marginale   IFR   IFR Intensivo   IFR Molto Intensivo
Visibilità : 
Base nubi : 
>= 8 km
>= 3000ft
5 / 8 km
1000 / 3000 ft
1500m / 5 km
500 / 1000 ft
800 / 1500m
200 / 500 ft
< 800m
< 200 ft
Simboli :   Temporali  Nebbia  Neve Forte  Precipitazioni Forti  Vento > 20 kt
SIGMETs :   Varie  Temporali  Ghiacco  Turbolenza  Onda orograficha  Ceneri Vulcaniche







- Altitudine del aeroporto : 62 ft
- Codice IATA : TAN


GMTT - Tanger Ibn Batouta

ULTIMO METAR :
  • 231830Z 35005KT 8000 NSC 15/09 Q1026 NOSIG

METARs OBSOLETI :
  • 231800Z 36006KT CAVOK 15/08 Q1026 NOSIG
  • 231730Z 34010KT CAVOK 16/10 Q1025 NOSIG
  • 231700Z 34007KT CAVOK 19/04 Q1026 NOSIG
  • 231630Z 34008KT CAVOK 19/03 Q1026 NOSIG
  • 231600Z 33007KT CAVOK 20/01 Q1026 NOSIG
  • 231530Z 33006KT CAVOK 21/03 Q1026 NOSIG

TAF TAF GMTT
Valido dal 23 a 18 ore il 25 a 00 ore UTC


231700Z 2318/2424 34009KT CAVOK
BECMG 2402/2404 10015KT
BECMG 2408/2410 09020G35KT
BECMG 2412/2416 09030G45KT
Nessun NOTAM noto per questo aeroporto.



MetMap, La meteo Aeronautica in un colpo d'occhio ! - Copyright ORBIFLY Dicembre 2007 - Disclaimer

ORBIFLY MET'MAP TEAM :

Programmazione e sviluppo : Alexandra Zaïnal
Concezione e sviluppo : Baudouin d'Aumeries
Co-Programmazione e sviluppo : Marc-Olivier Méhu
Supporto tecnico e logistico : Manuel Goepfert
Aiuto per la traduzione : Arnaldo La Scala

Contatto : metmap@orbifly.com




FONTI E CREDITI :

   NOAA